Time;durP1;ratioP1;P1;durP2;ratioP2;P2;SDS_P1;SDS_P2;PMS_P1;PMS_P2;Temp;Humidity;BMP_temperature;BMP_pressure;BME280_temperature;BME280_humidity;BME280_pressure;Samples;Min_cycle;Max_cycle;Signal;HPM_P1;HPM_P2
2023/01/15 00:01:25;;;;;;;2.90;0.70;;;;;;;;;;5037877;28;20983;-72
2023/01/15 00:03:53;;;;;;;1.83;0.80;;;;;;;;;;5038801;28;20453;-72
2023/01/15 00:06:21;;;;;;;2.23;0.77;;;;;;;;;;5038017;28;20580;-72
2023/01/15 00:08:49;;;;;;;2.00;0.50;;;;;;;;;;5038545;28;20550;-74
2023/01/15 00:11:17;;;;;;;4.50;0.70;;;;;;;;;;5038436;28;20540;-74
2023/01/15 00:13:45;;;;;;;3.23;1.07;;;;;;;;;;5038409;28;20544;-74
2023/01/15 00:16:15;;;;;;;1.97;0.70;;;;;;;;;;5050565;28;21135;-73
2023/01/15 00:18:44;;;;;;;1.97;0.70;;;;;;;;;;5038778;28;20453;-74
2023/01/15 00:21:23;;;;;;;;;;;;;;;;;;;;;
2023/01/15 00:29:39;;;;;;;2.33;0.77;;;;;;;;;;5058077;28;20420;-74
2023/01/15 00:32:15;;;;;;;2.37;0.70;;;;;;;;;;5058577;28;20556;-73
2023/01/15 00:34:51;;;;;;;2.67;0.67;;;;;;;;;;5040589;28;20446;-73
2023/01/15 00:37:18;;;;;;;1.80;0.60;;;;;;;;;;5037997;28;20553;-74
2023/01/15 00:39:46;;;;;;;4.00;0.70;;;;;;;;;;5039907;28;20458;-73
2023/01/15 00:42:18;;;;;;;2.17;0.53;;;;;;;;;;5057349;28;20457;-73
2023/01/15 00:45:04;;;;;;;2.03;0.70;;;;;;;;;;5039448;28;20446;-73
2023/01/15 00:47:37;;;;;;;2.30;1.00;;;;;;;;;;5037521;28;20478;-73
2023/01/15 00:50:11;;;;;;;3.10;0.63;;;;;;;;;;5040812;28;20512;-73
2023/01/15 00:52:41;;;;;;;2.50;1.07;;;;;;;;;;5039845;28;20841;-74
2023/01/15 00:55:12;;;;;;;3.30;1.00;;;;;;;;;;5044202;28;20530;-74
2023/01/15 00:57:42;;;;;;;1.90;0.70;;;;;;;;;;5038951;28;20462;-74
2023/01/15 01:00:12;;;;;;;1.80;0.60;;;;;;;;;;5037417;28;21027;-73
2023/01/15 01:02:41;;;;;;;4.60;1.07;;;;;;;;;;5036967;28;20524;-73
2023/01/15 01:05:09;;;;;;;4.00;0.67;;;;;;;;;;5045456;28;20493;-73
2023/01/15 01:07:39;;;;;;;2.37;1.10;;;;;;;;;;5038280;28;20509;-73
2023/01/15 01:10:13;;;;;;;4.60;0.60;;;;;;;;;;5038269;28;20455;-74
2023/01/15 01:12:44;;;;;;;4.53;0.90;;;;;;;;;;5053570;28;20760;-74
2023/01/15 01:15:21;;;;;;;2.17;0.87;;;;;;;;;;5057701;28;20678;-74
2023/01/15 01:17:53;;;;;;;3.63;1.07;;;;;;;;;;5041566;28;20446;-73
2023/01/15 01:20:23;;;;;;;2.90;1.10;;;;;;;;;;5037715;28;20556;-74
2023/01/15 01:22:53;;;;;;;2.80;0.80;;;;;;;;;;5037685;28;21085;-73
2023/01/15 01:25:21;;;;;;;2.50;1.00;;;;;;;;;;5037382;28;20466;-73
2023/01/15 01:27:50;;;;;;;1.77;0.80;;;;;;;;;;5037639;28;20772;-73
2023/01/15 01:30:18;;;;;;;2.17;0.80;;;;;;;;;;5038088;28;20512;-74
2023/01/15 01:35:36;;;;;;;4.90;1.20;;;;;;;;;;5048214;28;20450;-74
2023/01/15 01:38:06;;;;;;;3.70;0.80;;;;;;;;;;5057780;28;20447;-74
2023/01/15 01:40:40;;;;;;;3.97;1.20;;;;;;;;;;5057597;28;20464;-74
2023/01/15 01:43:22;;;;;;;5.47;1.00;;;;;;;;;;5044821;28;20539;-73
2023/01/15 01:45:49;;;;;;;1.63;0.70;;;;;;;;;;5050504;28;20456;-74
2023/01/15 01:48:19;;;;;;;1.80;0.70;;;;;;;;;;5057781;28;20500;-74
2023/01/15 01:50:55;;;;;;;1.70;0.70;;;;;;;;;;5058015;28;20454;-74
2023/01/15 01:53:26;;;;;;;7.13;1.10;;;;;;;;;;5057419;28;20460;-73
2023/01/15 01:55:58;;;;;;;2.87;1.00;;;;;;;;;;5057244;28;20461;-73
2023/01/15 01:58:28;;;;;;;4.03;0.70;;;;;;;;;;5057340;28;20866;-72
2023/01/15 02:00:59;;;;;;;4.90;1.30;;;;;;;;;;5047985;28;20455;-74
2023/01/15 02:03:32;;;;;;;2.27;1.00;;;;;;;;;;5048266;28;20482;-73
2023/01/15 02:06:16;;;;;;;;;;;;;;;;;;;;;
2023/01/15 02:08:44;;;;;;;4.70;1.27;;;;;;;;;;5056981;28;20489;-74
2023/01/15 02:11:15;;;;;;;3.50;1.13;;;;;;;;;;5056564;28;20454;-74
2023/01/15 02:13:45;;;;;;;2.00;0.70;;;;;;;;;;5056659;28;20873;-74
2023/01/15 02:16:16;;;;;;;4.93;0.70;;;;;;;;;;5055961;28;20461;-74
2023/01/15 02:18:50;;;;;;;4.70;0.80;;;;;;;;;;5052106;28;20516;-74
2023/01/15 02:21:25;;;;;;;1.93;0.80;;;;;;;;;;5047913;28;20447;-73
2023/01/15 02:24:09;;;;;;;3.97;0.97;;;;;;;;;;5055582;28;20475;-74
2023/01/15 02:26:57;;;;;;;6.47;1.20;;;;;;;;;;5037419;28;20462;-74
2023/01/15 02:29:28;;;;;;;1.60;0.80;;;;;;;;;;5036518;28;20465;-73
2023/01/15 02:31:58;;;;;;;4.40;0.83;;;;;;;;;;5037300;28;20453;-73
2023/01/15 02:34:28;;;;;;;2.60;1.27;;;;;;;;;;5036860;28;20556;-74
2023/01/15 02:37:06;;;;;;;2.53;0.60;;;;;;;;;;5036937;28;20454;-73
2023/01/15 02:39:34;;;;;;;3.83;0.93;;;;;;;;;;5036449;28;20454;-73
2023/01/15 02:42:05;;;;;;;5.87;1.00;;;;;;;;;;5037222;28;20470;-74
2023/01/15 02:44:38;;;;;;;1.90;0.80;;;;;;;;;;5035969;28;20466;-74
2023/01/15 02:47:09;;;;;;;5.53;1.13;;;;;;;;;;5066909;28;20961;-74
2023/01/15 02:49:38;;;;;;;1.80;0.70;;;;;;;;;;5075456;28;20455;-75
2023/01/15 02:52:09;;;;;;;3.43;1.03;;;;;;;;;;5076670;28;20464;-73
2023/01/15 02:54:42;;;;;;;5.03;1.30;;;;;;;;;;5076410;28;20725;-74
2023/01/15 02:57:12;;;;;;;2.40;0.70;;;;;;;;;;5076222;28;20448;-74
2023/01/15 02:59:40;;;;;;;3.03;1.20;;;;;;;;;;5076277;28;20491;-74
2023/01/15 03:02:16;;;;;;;1.57;0.67;;;;;;;;;;5076404;28;20456;-73
2023/01/15 03:04:45;;;;;;;8.50;1.20;;;;;;;;;;5076037;28;20845;-74
2023/01/15 03:07:16;;;;;;;2.30;0.87;;;;;;;;;;5075698;28;20753;-74
2023/01/15 03:09:44;;;;;;;3.27;1.27;;;;;;;;;;5063945;28;20470;-74
2023/01/15 03:12:16;;;;;;;3.07;1.00;;;;;;;;;;5056379;28;20464;-74
2023/01/15 03:14:50;;;;;;;3.90;0.90;;;;;;;;;;5065214;28;20456;-72
2023/01/15 03:17:19;;;;;;;2.03;0.77;;;;;;;;;;5056024;28;20441;-73
2023/01/15 03:19:49;;;;;;;6.13;0.93;;;;;;;;;;5062181;28;20639;-72
2023/01/15 03:22:19;;;;;;;3.97;0.90;;;;;;;;;;5075551;28;20456;-73
2023/01/15 03:24:48;;;;;;;3.80;0.83;;;;;;;;;;5075367;28;20845;-73
2023/01/15 03:27:18;;;;;;;2.37;0.90;;;;;;;;;;5075722;28;20553;-74
2023/01/15 03:29:47;;;;;;;2.33;0.80;;;;;;;;;;5075168;28;20722;-73
2023/01/15 03:32:15;;;;;;;2.17;0.90;;;;;;;;;;5066354;28;20911;-73
2023/01/15 03:34:45;;;;;;;3.73;0.80;;;;;;;;;;5055081;28;20496;-73
2023/01/15 03:37:26;;;;;;;3.87;1.10;;;;;;;;;;5055255;28;20497;-73
2023/01/15 03:39:54;;;;;;;4.13;1.53;;;;;;;;;;5068924;28;20452;-74
2023/01/15 03:42:30;;;;;;;2.90;0.87;;;;;;;;;;5064320;28;20520;-74
2023/01/15 03:45:01;;;;;;;3.00;1.10;;;;;;;;;;5076570;28;20484;-74
2023/01/15 03:47:34;;;;;;;1.73;0.70;;;;;;;;;;5075681;28;20488;-74
2023/01/15 03:50:05;;;;;;;5.30;2.10;;;;;;;;;;5063208;28;20469;-73
2023/01/15 03:52:37;;;;;;;1.83;0.77;;;;;;;;;;5056456;28;20475;-72
2023/01/15 03:55:11;;;;;;;4.60;1.00;;;;;;;;;;5061313;28;20445;-74
2023/01/15 03:57:43;;;;;;;6.20;1.37;;;;;;;;;;5054863;28;20488;-73
2023/01/15 04:00:17;;;;;;;2.73;0.90;;;;;;;;;;5055480;28;20461;-73
2023/01/15 04:02:46;;;;;;;6.50;1.03;;;;;;;;;;5054639;28;20454;-72
2023/01/15 04:05:17;;;;;;;3.60;1.40;;;;;;;;;;5061325;28;20541;-73
2023/01/15 04:07:47;;;;;;;2.47;1.13;;;;;;;;;;5074319;28;20493;-72
2023/01/15 04:10:15;;;;;;;4.53;1.20;;;;;;;;;;5074953;28;20871;-73
2023/01/15 04:12:44;;;;;;;3.77;1.00;;;;;;;;;;5055729;28;20461;-73
2023/01/15 04:15:13;;;;;;;2.90;0.80;;;;;;;;;;5059824;28;20449;-73
2023/01/15 04:17:40;;;;;;;11.90;1.30;;;;;;;;;;5074357;28;20835;-73
2023/01/15 04:20:09;;;;;;;1.80;0.63;;;;;;;;;;5075383;28;20460;-73
2023/01/15 04:22:37;;;;;;;1.83;0.90;;;;;;;;;;5075289;28;20476;-73
2023/01/15 04:25:05;;;;;;;3.90;1.03;;;;;;;;;;5075494;28;20453;-72
2023/01/15 04:27:33;;;;;;;4.30;0.90;;;;;;;;;;5074969;28;20488;-73
2023/01/15 04:30:02;;;;;;;3.30;1.10;;;;;;;;;;5075533;28;20927;-73
2023/01/15 04:32:30;;;;;;;2.87;0.80;;;;;;;;;;5075595;28;20863;-74
2023/01/15 04:34:57;;;;;;;2.90;0.83;;;;;;;;;;5074884;28;20456;-74
2023/01/15 04:37:25;;;;;;;10.30;1.03;;;;;;;;;;5075849;28;20448;-74
2023/01/15 04:39:53;;;;;;;7.40;1.43;;;;;;;;;;5078045;28;20445;-74
2023/01/15 04:45:08;;;;;;;3.43;1.50;;;;;;;;;;5078071;28;20412;-74
2023/01/15 04:47:36;;;;;;;3.07;0.87;;;;;;;;;;5078897;28;20488;-74
2023/01/15 04:50:04;;;;;;;5.57;1.03;;;;;;;;;;5079084;28;20458;-74
2023/01/15 04:52:32;;;;;;;4.73;1.30;;;;;;;;;;5078288;28;20448;-74
2023/01/15 04:55:00;;;;;;;3.57;1.00;;;;;;;;;;5078755;28;20449;-74
2023/01/15 04:57:28;;;;;;;3.50;1.17;;;;;;;;;;5078625;28;20896;-74
2023/01/15 04:59:55;;;;;;;2.00;0.73;;;;;;;;;;5079171;28;20852;-74
2023/01/15 05:02:24;;;;;;;5.50;1.67;;;;;;;;;;5078436;28;20453;-74
2023/01/15 05:04:52;;;;;;;4.30;0.77;;;;;;;;;;5078731;28;20444;-74
2023/01/15 05:07:20;;;;;;;3.97;1.27;;;;;;;;;;5078256;28;20453;-74
2023/01/15 05:09:50;;;;;;;6.80;1.07;;;;;;;;;;5078670;28;20437;-74
2023/01/15 05:12:18;;;;;;;6.37;1.00;;;;;;;;;;5076449;28;20529;-73
2023/01/15 05:14:45;;;;;;;7.23;1.30;;;;;;;;;;5070794;28;20438;-74
2023/01/15 05:17:13;;;;;;;6.07;1.10;;;;;;;;;;5057804;28;20860;-74
2023/01/15 05:19:43;;;;;;;3.63;1.30;;;;;;;;;;5072192;28;20436;-74
2023/01/15 05:22:10;;;;;;;6.13;1.33;;;;;;;;;;5078173;28;20448;-74
2023/01/15 05:24:38;;;;;;;5.60;1.33;;;;;;;;;;5078306;28;20455;-74
2023/01/15 05:27:06;;;;;;;5.13;1.23;;;;;;;;;;5078134;28;20732;-74
2023/01/15 05:29:34;;;;;;;3.37;1.20;;;;;;;;;;5077073;28;20477;-74
2023/01/15 05:32:01;;;;;;;6.90;1.10;;;;;;;;;;5078133;28;20457;-74
2023/01/15 05:34:29;;;;;;;5.40;0.87;;;;;;;;;;5070652;28;20449;-74
2023/01/15 05:36:58;;;;;;;10.93;1.20;;;;;;;;;;5058287;28;20468;-74
2023/01/15 05:39:26;;;;;;;2.40;0.60;;;;;;;;;;5058038;28;20446;-74
2023/01/15 05:41:53;;;;;;;3.57;0.67;;;;;;;;;;5057825;28;20465;-74
2023/01/15 05:44:22;;;;;;;2.80;1.07;;;;;;;;;;5057837;28;20446;-73
2023/01/15 05:46:50;;;;;;;2.63;1.10;;;;;;;;;;5057974;28;20484;-74
2023/01/15 05:49:19;;;;;;;8.57;1.20;;;;;;;;;;5057702;28;20885;-74
2023/01/15 05:51:47;;;;;;;4.00;1.40;;;;;;;;;;5056997;28;20461;-73
2023/01/15 05:54:17;;;;;;;5.87;1.17;;;;;;;;;;5057827;28;20544;-74
2023/01/15 05:56:46;;;;;;;12.87;1.60;;;;;;;;;;5057220;28;20457;-74
2023/01/15 05:59:17;;;;;;;4.23;0.90;;;;;;;;;;5061636;28;20529;-74
2023/01/15 06:01:45;;;;;;;3.07;0.80;;;;;;;;;;5077696;28;20551;-74
2023/01/15 06:04:23;;;;;;;2.03;0.97;;;;;;;;;;5077617;28;20455;-74
2023/01/15 06:06:52;;;;;;;8.30;0.90;;;;;;;;;;5075051;28;20457;-74
2023/01/15 06:09:22;;;;;;;4.00;0.70;;;;;;;;;;5064828;28;20484;-74
2023/01/15 06:11:52;;;;;;;3.10;0.90;;;;;;;;;;5076532;28;20618;-74
2023/01/15 06:14:20;;;;;;;2.43;1.03;;;;;;;;;;5062406;28;20461;-73
2023/01/15 06:16:48;;;;;;;7.63;1.50;;;;;;;;;;5056669;28;20531;-74
2023/01/15 06:19:15;;;;;;;4.43;1.40;;;;;;;;;;5056714;28;20442;-73
2023/01/15 06:21:43;;;;;;;1.70;0.87;;;;;;;;;;5056089;28;20480;-73
2023/01/15 06:24:12;;;;;;;5.83;1.67;;;;;;;;;;5056644;28;20757;-74
2023/01/15 06:26:41;;;;;;;5.47;0.80;;;;;;;;;;5055778;28;20460;-73
2023/01/15 06:29:09;;;;;;;3.33;1.00;;;;;;;;;;5055405;28;20497;-73
2023/01/15 06:31:38;;;;;;;1.70;0.77;;;;;;;;;;5055883;28;20473;-73
2023/01/15 06:34:28;;;;;;;3.97;0.83;;;;;;;;;;5056044;28;20456;-74
2023/01/15 06:36:55;;;;;;;7.63;1.60;;;;;;;;;;5056604;28;20454;-73
2023/01/15 06:39:23;;;;;;;6.13;1.40;;;;;;;;;;5056947;28;20988;-73
2023/01/15 06:47:23;;;;;;;3.33;1.20;;;;;;;;;;5056716;28;20502;-73
2023/01/15 06:49:51;;;;;;;6.40;1.57;;;;;;;;;;5055337;28;20559;-74
2023/01/15 06:52:19;;;;;;;5.10;1.20;;;;;;;;;;5056366;28;20461;-74
2023/01/15 06:54:47;;;;;;;4.00;1.30;;;;;;;;;;5061421;28;20465;-73
2023/01/15 06:57:17;;;;;;;7.87;1.50;;;;;;;;;;5076691;28;20456;-74
2023/01/15 06:59:45;;;;;;;4.60;1.67;;;;;;;;;;5073882;28;20453;-74
2023/01/15 07:02:13;;;;;;;4.17;1.50;;;;;;;;;;5073030;28;20871;-74
2023/01/15 07:04:42;;;;;;;4.73;1.30;;;;;;;;;;5070483;28;20445;-74
2023/01/15 07:07:16;;;;;;;6.03;2.03;;;;;;;;;;5061092;28;20485;-74
2023/01/15 07:09:44;;;;;;;2.60;1.10;;;;;;;;;;5060662;28;20477;-74
2023/01/15 07:12:12;;;;;;;3.67;1.40;;;;;;;;;;5068357;28;20465;-73
2023/01/15 07:14:41;;;;;;;7.20;2.00;;;;;;;;;;5064227;28;20468;-73
2023/01/15 07:17:10;;;;;;;1.80;1.00;;;;;;;;;;5075427;28;20452;-73
2023/01/15 07:19:37;;;;;;;4.40;1.30;;;;;;;;;;5070253;28;20761;-73
2023/01/15 07:22:06;;;;;;;4.70;2.63;;;;;;;;;;5075088;28;20459;-74
2023/01/15 07:24:33;;;;;;;5.77;1.70;;;;;;;;;;5070446;28;20456;-73
2023/01/15 07:27:01;;;;;;;11.17;1.90;;;;;;;;;;5056004;28;20748;-73
2023/01/15 07:29:29;;;;;;;2.70;1.60;;;;;;;;;;5056905;28;20499;-74
2023/01/15 07:31:58;;;;;;;5.70;1.70;;;;;;;;;;5055763;28;20453;-73
2023/01/15 07:34:25;;;;;;;4.20;1.83;;;;;;;;;;5061388;28;20530;-73
2023/01/15 07:36:54;;;;;;;4.80;1.60;;;;;;;;;;5076288;28;20452;-73
2023/01/15 07:39:21;;;;;;;5.83;1.97;;;;;;;;;;5075317;28;20731;-74
2023/01/15 07:50:08;;;;;;;17.53;1.53;;;;;;;;;;5059018;28;20871;-74
2023/01/15 07:52:37;;;;;;;7.50;3.97;;;;;;;;;;5057423;28;20460;-73
2023/01/15 07:55:07;;;;;;;6.10;1.50;;;;;;;;;;5054971;28;20481;-74
2023/01/15 07:57:36;;;;;;;8.03;2.87;;;;;;;;;;5055218;28;20465;-73
2023/01/15 08:00:04;;;;;;;7.30;2.27;;;;;;;;;;5055664;28;20730;-73
2023/01/15 08:02:34;;;;;;;2.87;1.50;;;;;;;;;;5064313;28;20472;-74
2023/01/15 08:05:01;;;;;;;8.30;1.23;;;;;;;;;;5071797;28;20552;-74
2023/01/15 08:07:32;;;;;;;5.63;2.03;;;;;;;;;;5061989;28;20552;-74
2023/01/15 08:09:59;;;;;;;4.13;1.60;;;;;;;;;;5055575;28;20485;-75
2023/01/15 08:15:15;;;;;;;5.80;1.10;;;;;;;;;;5058053;28;20433;-75
2023/01/15 08:17:45;;;;;;;2.53;0.90;;;;;;;;;;5059189;28;20495;-75
2023/01/15 08:20:14;;;;;;;5.30;1.80;;;;;;;;;;5059111;28;20437;-74
2023/01/15 08:22:43;;;;;;;2.27;1.10;;;;;;;;;;5060873;28;20487;-74
2023/01/15 08:25:13;;;;;;;4.57;1.30;;;;;;;;;;5067399;28;20734;-74
2023/01/15 08:27:42;;;;;;;14.83;2.07;;;;;;;;;;5059351;28;20453;-74
2023/01/15 08:30:12;;;;;;;4.83;1.30;;;;;;;;;;5059137;28;20481;-74
2023/01/15 08:32:41;;;;;;;5.73;1.40;;;;;;;;;;5058942;28;20461;-74
2023/01/15 08:35:11;;;;;;;4.27;1.47;;;;;;;;;;5069227;28;20570;-74
2023/01/15 08:37:39;;;;;;;3.10;1.13;;;;;;;;;;5073708;28;20750;-74
2023/01/15 08:40:08;;;;;;;2.60;1.53;;;;;;;;;;5063032;28;20856;-74
2023/01/15 08:42:36;;;;;;;2.00;1.10;;;;;;;;;;5064683;28;20468;-75
2023/01/15 08:45:09;;;;;;;17.63;3.00;;;;;;;;;;5065259;28;20530;-74
2023/01/15 08:47:38;;;;;;;5.30;1.67;;;;;;;;;;5076205;28;20487;-74
2023/01/15 08:50:23;;;;;;;8.93;1.40;;;;;;;;;;5069863;28;20488;-73
2023/01/15 08:52:54;;;;;;;3.97;1.60;;;;;;;;;;5061742;28;20770;-74
2023/01/15 08:55:27;;;;;;;3.97;1.43;;;;;;;;;;5062194;28;20475;-74
2023/01/15 08:57:55;;;;;;;6.73;1.57;;;;;;;;;;5056476;28;20508;-74
2023/01/15 09:00:36;;;;;;;5.00;1.17;;;;;;;;;;5065946;28;20461;-74
2023/01/15 09:03:04;;;;;;;10.17;1.83;;;;;;;;;;5065569;28;20495;-73
2023/01/15 09:05:32;;;;;;;4.40;1.60;;;;;;;;;;5066933;28;20461;-75
2023/01/15 09:08:05;;;;;;;6.13;1.20;;;;;;;;;;5059438;28;20809;-73
2023/01/15 09:10:35;;;;;;;4.80;1.07;;;;;;;;;;5068661;28;20491;-75
2023/01/15 09:13:02;;;;;;;6.80;1.40;;;;;;;;;;5057556;28;20591;-74
2023/01/15 09:15:35;;;;;;;7.83;1.87;;;;;;;;;;5062691;28;20603;-74
2023/01/15 09:18:03;;;;;;;2.73;0.90;;;;;;;;;;5065107;28;20460;-74
2023/01/15 09:20:31;;;;;;;4.43;1.30;;;;;;;;;;5061682;28;20469;-75
2023/01/15 09:22:59;;;;;;;5.23;0.90;;;;;;;;;;5056620;28;20457;-75
2023/01/15 09:25:40;;;;;;;4.20;1.40;;;;;;;;;;5059503;28;20563;-75
2023/01/15 09:28:08;;;;;;;4.33;1.20;;;;;;;;;;5064740;28;20526;-75
2023/01/15 09:30:36;;;;;;;3.20;1.17;;;;;;;;;;5057152;28;20943;-75
2023/01/15 09:33:05;;;;;;;3.60;1.03;;;;;;;;;;5069240;28;20527;-75
2023/01/15 09:35:34;;;;;;;1.87;0.73;;;;;;;;;;5066282;28;20451;-75
2023/01/15 09:38:01;;;;;;;2.83;0.87;;;;;;;;;;5069854;28;20771;-75
2023/01/15 09:40:55;;;;;;;2.70;1.00;;;;;;;;;;5071896;28;20458;-75
2023/01/15 09:43:40;;;;;;;5.37;2.00;;;;;;;;;;5063223;28;20492;-75
2023/01/15 09:46:12;;;;;;;3.47;1.90;;;;;;;;;;5066356;28;20473;-75
2023/01/15 09:48:48;;;;;;;3.50;1.70;;;;;;;;;;5070096;28;20518;-74
2023/01/15 09:51:22;;;;;;;4.03;1.27;;;;;;;;;;5057082;28;20492;-74
2023/01/15 09:53:59;;;;;;;2.77;0.90;;;;;;;;;;5055839;28;20460;-74
2023/01/15 09:56:42;;;;;;;2.30;1.20;;;;;;;;;;5061316;28;20956;-74
2023/01/15 09:59:25;;;;;;;4.73;1.13;;;;;;;;;;5067746;28;20461;-74
2023/01/15 10:02:00;;;;;;;2.20;1.43;;;;;;;;;;5065269;28;20561;-74
2023/01/15 10:04:33;;;;;;;2.80;1.63;;;;;;;;;;5060251;28;20468;-75
2023/01/15 10:07:04;;;;;;;4.30;1.80;;;;;;;;;;5061780;28;20458;-75
2023/01/15 10:09:36;;;;;;;2.00;1.30;;;;;;;;;;5064690;28;20492;-75
2023/01/15 10:15:00;;;;;;;3.73;1.23;;;;;;;;;;5063334;28;20526;-75
2023/01/15 10:17:29;;;;;;;2.83;1.03;;;;;;;;;;5076065;28;20498;-75
2023/01/15 10:19:57;;;;;;;2.80;1.23;;;;;;;;;;5071739;28;20527;-75
2023/01/15 10:22:32;;;;;;;3.27;1.30;;;;;;;;;;5059808;28;20727;-75
2023/01/15 10:25:03;;;;;;;5.07;1.20;;;;;;;;;;5063691;28;20629;-74
2023/01/15 10:27:32;;;;;;;3.13;1.10;;;;;;;;;;5062959;28;20461;-75
2023/01/15 10:30:05;;;;;;;2.53;1.50;;;;;;;;;;5075814;28;20492;-75
2023/01/15 10:32:44;;;;;;;3.57;1.13;;;;;;;;;;5055587;28;20458;-75
2023/01/15 10:35:24;;;;;;;2.17;1.10;;;;;;;;;;5056372;28;20449;-75
2023/01/15 10:37:55;;;;;;;4.90;2.43;;;;;;;;;;5057886;28;20472;-74
2023/01/15 10:40:29;;;;;;;6.57;1.97;;;;;;;;;;5056926;28;20502;-75
2023/01/15 10:43:00;;;;;;;3.47;1.27;;;;;;;;;;5054921;28;20575;-75
2023/01/15 10:45:34;;;;;;;3.63;1.50;;;;;;;;;;5073280;28;20468;-75
2023/01/15 10:48:07;;;;;;;7.40;1.87;;;;;;;;;;5055232;28;20468;-74
2023/01/15 10:50:39;;;;;;;8.50;1.37;;;;;;;;;;5058523;28;20528;-75
2023/01/15 10:53:12;;;;;;;3.40;1.20;;;;;;;;;;5055638;28;20501;-75
2023/01/15 10:55:42;;;;;;;6.90;3.50;;;;;;;;;;5054209;28;21083;-74
2023/01/15 10:58:16;;;;;;;8.73;3.27;;;;;;;;;;5053863;28;20851;-75
2023/01/15 11:00:48;;;;;;;3.40;1.20;;;;;;;;;;5056806;28;20473;-75
2023/01/15 11:03:20;;;;;;;3.47;1.43;;;;;;;;;;5068369;28;21078;-75
2023/01/15 11:05:51;;;;;;;4.03;1.30;;;;;;;;;;5054303;28;20508;-76
2023/01/15 11:08:25;;;;;;;3.20;1.10;;;;;;;;;;5058718;28;21083;-74
2023/01/15 11:10:53;;;;;;;3.43;0.90;;;;;;;;;;5060989;28;20477;-74
2023/01/15 11:19:38;;;;;;;5.33;1.10;;;;;;;;;;5030346;28;20436;-75
2023/01/15 11:22:11;;;;;;;3.10;0.80;;;;;;;;;;5056310;28;20465;-75
2023/01/15 11:24:39;;;;;;;3.33;0.90;;;;;;;;;;5054665;28;20461;-75
2023/01/15 11:27:15;;;;;;;2.57;1.10;;;;;;;;;;5058977;28;20469;-76
2023/01/15 11:29:44;;;;;;;5.17;1.10;;;;;;;;;;5063267;28;20556;-75
2023/01/15 11:32:25;;;;;;;2.73;0.93;;;;;;;;;;5074724;28;20506;-75
2023/01/15 11:34:56;;;;;;;3.20;1.00;;;;;;;;;;5064289;28;20473;-74
2023/01/15 11:37:32;;;;;;;2.60;0.90;;;;;;;;;;5053682;28;20457;-75
2023/01/15 11:40:05;;;;;;;1.87;0.80;;;;;;;;;;5054642;28;20505;-75
2023/01/15 11:51:09;;;;;;;3.57;0.70;;;;;;;;;;5068311;28;20769;-74
2023/01/15 11:53:47;;;;;;;5.77;1.70;;;;;;;;;;5061184;28;20822;-75
2023/01/15 11:56:25;;;;;;;3.93;1.40;;;;;;;;;;5059141;28;20468;-74
2023/01/15 11:59:02;;;;;;;5.23;1.37;;;;;;;;;;5074227;28;20494;-75
2023/01/15 12:01:36;;;;;;;3.00;1.23;;;;;;;;;;5074339;28;20899;-74
2023/01/15 12:04:19;;;;;;;3.00;1.13;;;;;;;;;;5067492;28;20857;-73
2023/01/15 12:06:51;;;;;;;6.03;1.07;;;;;;;;;;5065508;28;20440;-74
2023/01/15 12:09:28;;;;;;;5.23;1.27;;;;;;;;;;5069970;28;21034;-74
2023/01/15 12:12:04;;;;;;;6.90;0.97;;;;;;;;;;5071353;28;20447;-75
2023/01/15 12:14:43;;;;;;;2.33;0.90;;;;;;;;;;5066570;28;20555;-75
2023/01/15 12:17:19;;;;;;;2.10;1.20;;;;;;;;;;5061778;28;20526;-74
2023/01/15 12:19:50;;;;;;;3.93;1.00;;;;;;;;;;5077399;28;20466;-75
2023/01/15 12:22:24;;;;;;;1.97;0.77;;;;;;;;;;5077941;28;20716;-74
2023/01/15 12:24:59;;;;;;;4.80;1.07;;;;;;;;;;5056955;28;20492;-74
2023/01/15 12:27:37;;;;;;;3.00;0.97;;;;;;;;;;5072111;28;20534;-75
2023/01/15 12:30:10;;;;;;;5.40;1.07;;;;;;;;;;5071662;28;20484;-74
2023/01/15 12:32:40;;;;;;;3.30;0.90;;;;;;;;;;5057791;28;20457;-74
2023/01/15 12:35:14;;;;;;;5.33;1.47;;;;;;;;;;5075039;28;20475;-74
2023/01/15 12:37:46;;;;;;;1.97;0.90;;;;;;;;;;5059435;28;20465;-74
2023/01/15 12:40:20;;;;;;;4.50;1.10;;;;;;;;;;5073605;28;20745;-74
2023/01/15 12:45:35;;;;;;;3.27;1.27;;;;;;;;;;5063571;28;20558;-74
2023/01/15 12:48:13;;;;;;;4.40;2.37;;;;;;;;;;5077626;28;20555;-74
2023/01/15 12:50:45;;;;;;;12.63;1.27;;;;;;;;;;5071936;28;20489;-74
2023/01/15 12:53:19;;;;;;;7.93;1.17;;;;;;;;;;5057141;28;20533;-74
2023/01/15 12:55:49;;;;;;;6.50;1.10;;;;;;;;;;5066828;28;20500;-74
2023/01/15 12:58:22;;;;;;;2.70;0.70;;;;;;;;;;5073814;28;20441;-74
2023/01/15 13:01:07;;;;;;;4.90;0.90;;;;;;;;;;5067024;28;20461;-74
2023/01/15 13:03:44;;;;;;;1.50;0.83;;;;;;;;;;5076552;28;20441;-75
2023/01/15 13:06:13;;;;;;;3.30;1.10;;;;;;;;;;5057286;28;20795;-75
2023/01/15 13:08:45;;;;;;;1.50;0.57;;;;;;;;;;5056955;28;20765;-74
2023/01/15 13:11:13;;;;;;;4.10;1.20;;;;;;;;;;5056920;28;20489;-73
2023/01/15 13:13:42;;;;;;;2.87;1.03;;;;;;;;;;5056792;28;20540;-75
2023/01/15 13:16:13;;;;;;;1.50;0.80;;;;;;;;;;5063885;28;20487;-75
2023/01/15 13:18:54;;;;;;;;;;;;;;;;;;;;;
2023/01/15 13:21:24;;;;;;;2.83;1.23;;;;;;;;;;5055177;28;20449;-75
2023/01/15 13:24:04;;;;;;;4.40;1.27;;;;;;;;;;5056083;28;20453;-75
2023/01/15 13:26:46;;;;;;;4.90;1.27;;;;;;;;;;5063681;28;20918;-74
2023/01/15 13:29:17;;;;;;;2.23;1.63;;;;;;;;;;5074214;28;20767;-75
2023/01/15 13:31:58;;;;;;;3.70;1.43;;;;;;;;;;5070745;28;20524;-74
2023/01/15 13:34:31;;;;;;;7.50;1.70;;;;;;;;;;5055697;28;20457;-74
2023/01/15 13:37:04;;;;;;;4.90;0.73;;;;;;;;;;5057911;28;20458;-75
2023/01/15 13:39:38;;;;;;;2.70;0.67;;;;;;;;;;5056204;28;20469;-75
2023/01/15 13:44:53;;;;;;;2.00;0.90;;;;;;;;;;5055235;28;20448;-76
2023/01/15 13:47:23;;;;;;;3.00;1.10;;;;;;;;;;5056845;28;20523;-75
2023/01/15 13:49:53;;;;;;;1.50;0.73;;;;;;;;;;5063640;28;20473;-75
2023/01/15 13:52:25;;;;;;;1.67;0.70;;;;;;;;;;5054846;28;20544;-75
2023/01/15 13:54:56;;;;;;;2.70;0.80;;;;;;;;;;5056152;28;20853;-75
2023/01/15 13:57:33;;;;;;;4.43;1.37;;;;;;;;;;5069655;28;20492;-76
2023/01/15 14:00:07;;;;;;;3.73;1.00;;;;;;;;;;5063031;28;20864;-74
2023/01/15 14:02:37;;;;;;;2.53;1.33;;;;;;;;;;5054673;28;20453;-74
2023/01/15 14:05:27;;;;;;;2.43;1.23;;;;;;;;;;5066667;28;20460;-75
2023/01/15 14:08:03;;;;;;;3.43;0.80;;;;;;;;;;5074548;28;20421;-77
2023/01/15 14:10:37;;;;;;;3.93;1.13;;;;;;;;;;5076710;28;20495;-75
2023/01/15 14:13:23;;;;;;;3.57;1.13;;;;;;;;;;5075361;28;20888;-75
2023/01/15 14:15:53;;;;;;;3.20;0.90;;;;;;;;;;5075107;28;20457;-77
2023/01/15 14:18:37;;;;;;;2.60;0.73;;;;;;;;;;5075926;28;20451;-75
2023/01/15 14:21:12;;;;;;;2.40;0.90;;;;;;;;;;5074021;28;20480;-76
2023/01/15 14:23:59;;;;;;;2.33;0.90;;;;;;;;;;5074111;28;20479;-75
2023/01/15 14:26:40;;;;;;;3.07;0.80;;;;;;;;;;5074914;28;20520;-75
2023/01/15 14:29:24;;;;;;;5.00;0.73;;;;;;;;;;5074819;28;20532;-75
2023/01/15 14:31:58;;;;;;;3.87;0.83;;;;;;;;;;5073512;28;20932;-75
2023/01/15 14:34:27;;;;;;;2.93;0.97;;;;;;;;;;5073411;28;20511;-75
2023/01/15 14:36:59;;;;;;;8.30;1.20;;;;;;;;;;5074064;28;20878;-75
2023/01/15 14:39:38;;;;;;;2.17;1.30;;;;;;;;;;5073830;28;20562;-76
2023/01/15 14:45:04;;;;;;;1.90;0.60;;;;;;;;;;5073294;28;20568;-76
2023/01/15 14:47:35;;;;;;;2.07;1.10;;;;;;;;;;5073484;28;20675;-75
2023/01/15 14:50:20;;;;;;;2.03;0.60;;;;;;;;;;5074468;28;20518;-76
2023/01/15 14:52:49;;;;;;;5.20;1.33;;;;;;;;;;5063526;28;20551;-75
2023/01/15 14:55:21;;;;;;;2.53;0.90;;;;;;;;;;5061500;28;20458;-74
2023/01/15 14:57:54;;;;;;;4.30;1.13;;;;;;;;;;5074807;28;20441;-76
2023/01/15 15:00:31;;;;;;;3.03;1.00;;;;;;;;;;5065220;28;20911;-74
2023/01/15 15:03:03;;;;;;;7.13;1.53;;;;;;;;;;5064023;28;20441;-76
2023/01/15 15:05:35;;;;;;;4.17;1.70;;;;;;;;;;5075276;28;20464;-76
2023/01/15 15:08:04;;;;;;;2.23;0.70;;;;;;;;;;5070124;28;20917;-76
2023/01/15 15:10:34;;;;;;;2.50;0.90;;;;;;;;;;5054398;28;20446;-76
2023/01/15 15:13:12;;;;;;;4.10;1.20;;;;;;;;;;5057792;28;20453;-75
2023/01/15 15:15:45;;;;;;;4.87;0.90;;;;;;;;;;5056248;28;20898;-76
2023/01/15 15:18:19;;;;;;;2.40;0.80;;;;;;;;;;5056745;28;20453;-75
2023/01/15 15:20:50;;;;;;;3.63;1.00;;;;;;;;;;5054859;28;20456;-75
2023/01/15 15:23:21;;;;;;;4.97;1.00;;;;;;;;;;5054625;28;20466;-75
2023/01/15 15:25:55;;;;;;;3.20;0.90;;;;;;;;;;5058656;28;20465;-76
2023/01/15 15:28:29;;;;;;;2.40;1.10;;;;;;;;;;5057698;28;20791;-75
2023/01/15 15:31:00;;;;;;;3.00;0.70;;;;;;;;;;5068438;28;21263;-74
2023/01/15 15:33:29;;;;;;;1.63;0.80;;;;;;;;;;5054832;28;20487;-74
2023/01/15 15:36:00;;;;;;;3.00;1.10;;;;;;;;;;5059630;28;20554;-76
2023/01/15 15:38:30;;;;;;;7.60;2.23;;;;;;;;;;5054956;28;20799;-75
2023/01/15 15:41:01;;;;;;;3.03;1.17;;;;;;;;;;5066616;28;20543;-76
2023/01/15 15:49:11;;;;;;;5.90;0.87;;;;;;;;;;5058351;28;20471;-75
2023/01/15 15:51:40;;;;;;;3.53;1.07;;;;;;;;;;5063525;28;20492;-75
2023/01/15 15:54:16;;;;;;;2.70;1.00;;;;;;;;;;5074461;28;20448;-74
2023/01/15 15:56:49;;;;;;;2.10;0.83;;;;;;;;;;5074217;28;20491;-75
2023/01/15 15:59:26;;;;;;;3.87;1.27;;;;;;;;;;5074606;28;20436;-75
2023/01/15 16:01:54;;;;;;;4.13;1.13;;;;;;;;;;5073985;28;20452;-75
2023/01/15 16:04:23;;;;;;;326.48;84.88;;;;;;;;;;5053340;28;20504;-75
2023/01/15 16:06:52;;;;;;;309.55;78.88;;;;;;;;;;5055010;28;20210;-75
2023/01/15 16:09:23;;;;;;;328.80;84.18;;;;;;;;;;5071674;28;20229;-74
2023/01/15 16:11:51;;;;;;;307.02;72.70;;;;;;;;;;5073495;28;20222;-74